createdAt,value
2023-01-02T00:04:15.859Z,12.8
2023-01-02T00:14:16.461Z,12.8
2023-01-02T00:24:16.668Z,12.7
2023-01-02T00:34:17.116Z,12.6
2023-01-02T01:14:19.626Z,12.7
2023-01-02T01:24:19.750Z,13.1
2023-01-02T01:44:21.171Z,13.6
2023-01-02T01:54:21.668Z,13.5
2023-01-02T02:14:22.981Z,13.2
2023-01-02T02:54:25.366Z,12.5
2023-01-02T03:04:25.705Z,12.4
2023-01-02T03:14:26.692Z,12.4
2023-01-02T03:24:27.090Z,12.3
2023-01-02T03:34:27.821Z,12.3
2023-01-02T03:44:28.786Z,12.4
2023-01-02T03:54:29.273Z,12.3
2023-01-02T05:34:33.600Z,12.4
2023-01-02T05:44:34.069Z,12.5
2023-01-02T05:54:34.653Z,12.5
2023-01-02T06:04:35.287Z,12.5
2023-01-02T06:14:36.169Z,12.6
2023-01-02T06:44:37.517Z,12.2
2023-01-02T06:54:37.630Z,12.2
2023-01-02T07:04:38.545Z,12.2
2023-01-02T07:14:39.443Z,12.3
2023-01-02T07:24:39.878Z,12.2
2023-01-02T07:34:40.715Z,12.2
2023-01-02T07:44:41.657Z,12.2
2023-01-02T08:14:43.880Z,12.2
2023-01-02T08:24:44.867Z,12.2
2023-01-02T08:34:45.245Z,12.1
2023-01-02T08:44:45.845Z,12.1
2023-01-02T08:54:46.450Z,11.9
2023-01-02T09:24:48.459Z,10.9
2023-01-02T09:34:49.346Z,10.7
2023-01-02T09:44:50.025Z,10.5
2023-01-02T09:54:51.067Z,10.4
2023-01-02T10:04:52.047Z,10.3
2023-01-02T10:14:52.486Z,10.2
2023-01-02T10:24:52.954Z,10.1
2023-01-02T10:34:53.315Z,10.1
2023-01-02T10:44:53.616Z,10.1
2023-01-02T10:54:59.376Z,10.1
2023-01-02T11:04:54.444Z,10.1
2023-01-02T11:14:54.557Z,10.2
2023-01-02T11:24:59.774Z,10.1
2023-01-02T11:34:55.438Z,10.1
2023-01-02T11:44:56.515Z,10
2023-01-02T11:54:57.554Z,10
2023-01-02T12:14:59.005Z,10.3
2023-01-02T12:25:00.028Z,10.3
2023-01-02T12:35:00.781Z,10.2
2023-01-02T12:45:01.472Z,10.2
2023-01-02T13:05:02.749Z,10
2023-01-02T13:15:03.575Z,10
2023-01-02T13:25:03.960Z,9.9
2023-01-02T13:35:04.295Z,9.9
2023-01-02T13:45:05.125Z,9.9
2023-01-02T13:55:05.768Z,9.8
2023-01-02T14:15:07.113Z,9.7
2023-01-02T14:25:07.989Z,9.7
2023-01-02T14:35:08.566Z,9.6
2023-01-02T14:45:09.636Z,9.5
2023-01-02T14:55:09.797Z,9.5
2023-01-02T15:25:12.002Z,9.2
2023-01-02T15:55:14.779Z,9.2
2023-01-02T16:05:15.772Z,9.1
2023-01-02T16:15:16.265Z,9.1
2023-01-02T16:25:17.362Z,9
2023-01-02T16:35:18.318Z,8.9
2023-01-02T16:45:18.427Z,9
2023-01-02T16:55:19.388Z,9
2023-01-02T17:05:20.416Z,9.1
2023-01-02T17:15:21.208Z,9.2
2023-01-02T17:25:21.431Z,9.2
2023-01-02T17:35:22.028Z,9.2
2023-01-02T17:55:23.278Z,7.7
2023-01-02T18:05:23.680Z,7.6
2023-01-02T18:15:24.196Z,7.7
2023-01-02T18:25:24.684Z,7.7
2023-01-02T18:35:47.016Z,7.7
2023-01-02T18:45:25.178Z,7.8
2023-01-02T18:55:25.532Z,8.1
2023-01-02T19:05:25.835Z,8.2
2023-01-02T19:15:26.179Z,8.4
2023-01-02T19:25:26.626Z,8.4
2023-01-02T19:35:26.728Z,8.4
2023-01-02T19:55:27.609Z,8.5
2023-01-02T20:05:28.236Z,8.4
2023-01-02T20:25:29.565Z,8.3
2023-01-02T21:35:32.652Z,7.8
2023-01-02T21:55:33.697Z,7.6
2023-01-02T22:05:34.679Z,7.4
2023-01-02T23:05:38.203Z,6.6
2023-01-02T23:15:38.367Z,6.5
2023-01-02T23:45:39.510Z,6.4
2023-01-02T23:55:39.794Z,6
